sensor_id;sensor_type;location;lat;lon;timestamp;P1;durP1;ratioP1;P2;durP2;ratioP2
5821;SDS011;2937;48.562;8.022;2022-07-23T00:03:57;12.27;;;10.97;;
5821;SDS011;2937;48.562;8.022;2022-07-23T00:08:50;12.80;;;10.83;;
5821;SDS011;2937;48.562;8.022;2022-07-23T00:13:42;11.73;;;10.47;;
5821;SDS011;2937;48.562;8.022;2022-07-23T00:18:35;11.90;;;10.63;;
5821;SDS011;2937;48.562;8.022;2022-07-23T00:23:29;13.70;;;10.40;;
5821;SDS011;2937;48.562;8.022;2022-07-23T00:28:22;13.33;;;9.87;;
5821;SDS011;2937;48.562;8.022;2022-07-23T00:33:14;13.93;;;10.00;;
5821;SDS011;2937;48.562;8.022;2022-07-23T00:38:07;14.30;;;9.80;;
5821;SDS011;2937;48.562;8.022;2022-07-23T00:43:02;10.30;;;9.20;;
5821;SDS011;2937;48.562;8.022;2022-07-23T00:47:54;11.63;;;9.20;;
5821;SDS011;2937;48.562;8.022;2022-07-23T00:52:47;10.60;;;9.00;;
5821;SDS011;2937;48.562;8.022;2022-07-23T00:57:40;10.27;;;9.00;;
5821;SDS011;2937;48.562;8.022;2022-07-23T01:02:34;12.23;;;10.13;;
5821;SDS011;2937;48.562;8.022;2022-07-23T01:07:27;12.90;;;9.73;;
5821;SDS011;2937;48.562;8.022;2022-07-23T01:12:20;14.27;;;10.10;;
5821;SDS011;2937;48.562;8.022;2022-07-23T01:17:13;13.30;;;10.40;;
5821;SDS011;2937;48.562;8.022;2022-07-23T01:22:06;13.03;;;10.40;;
5821;SDS011;2937;48.562;8.022;2022-07-23T01:27:01;13.10;;;10.67;;
5821;SDS011;2937;48.562;8.022;2022-07-23T01:31:53;14.40;;;10.47;;
5821;SDS011;2937;48.562;8.022;2022-07-23T01:36:46;12.60;;;10.37;;
5821;SDS011;2937;48.562;8.022;2022-07-23T01:41:40;13.13;;;10.30;;
5821;SDS011;2937;48.562;8.022;2022-07-23T01:46:37;16.43;;;11.10;;
5821;SDS011;2937;48.562;8.022;2022-07-23T01:51:30;13.33;;;10.07;;
5821;SDS011;2937;48.562;8.022;2022-07-23T01:56:29;13.60;;;10.53;;
5821;SDS011;2937;48.562;8.022;2022-07-23T02:01:21;13.10;;;10.80;;
5821;SDS011;2937;48.562;8.022;2022-07-23T02:06:15;13.30;;;10.60;;
5821;SDS011;2937;48.562;8.022;2022-07-23T02:11:08;12.17;;;10.03;;
5821;SDS011;2937;48.562;8.022;2022-07-23T02:16:01;12.70;;;10.50;;
5821;SDS011;2937;48.562;8.022;2022-07-23T02:20:55;11.80;;;9.33;;
5821;SDS011;2937;48.562;8.022;2022-07-23T02:25:49;13.80;;;9.93;;
5821;SDS011;2937;48.562;8.022;2022-07-23T02:30:41;11.70;;;9.57;;
5821;SDS011;2937;48.562;8.022;2022-07-23T02:35:34;11.53;;;9.47;;
5821;SDS011;2937;48.562;8.022;2022-07-23T02:40:27;13.90;;;10.07;;
5821;SDS011;2937;48.562;8.022;2022-07-23T02:45:22;12.10;;;10.13;;
5821;SDS011;2937;48.562;8.022;2022-07-23T02:50:16;13.80;;;9.30;;
5821;SDS011;2937;48.562;8.022;2022-07-23T02:55:09;13.77;;;9.90;;
5821;SDS011;2937;48.562;8.022;2022-07-23T03:00:02;12.23;;;9.77;;
5821;SDS011;2937;48.562;8.022;2022-07-23T03:04:57;11.93;;;9.10;;
5821;SDS011;2937;48.562;8.022;2022-07-23T03:09:50;14.30;;;9.43;;
5821;SDS011;2937;48.562;8.022;2022-07-23T03:14:43;13.27;;;10.80;;
5821;SDS011;2937;48.562;8.022;2022-07-23T03:19:35;13.33;;;11.03;;
5821;SDS011;2937;48.562;8.022;2022-07-23T03:24:32;13.53;;;10.60;;
5821;SDS011;2937;48.562;8.022;2022-07-23T03:29:39;17.43;;;12.67;;
5821;SDS011;2937;48.562;8.022;2022-07-23T03:34:31;13.50;;;11.10;;
5821;SDS011;2937;48.562;8.022;2022-07-23T03:39:24;12.60;;;10.03;;
5821;SDS011;2937;48.562;8.022;2022-07-23T03:44:19;12.20;;;10.20;;
5821;SDS011;2937;48.562;8.022;2022-07-23T03:49:11;11.43;;;9.63;;
5821;SDS011;2937;48.562;8.022;2022-07-23T03:54:04;19.00;;;11.07;;
5821;SDS011;2937;48.562;8.022;2022-07-23T03:58:56;13.33;;;10.00;;
5821;SDS011;2937;48.562;8.022;2022-07-23T04:03:51;12.90;;;11.17;;
5821;SDS011;2937;48.562;8.022;2022-07-23T04:08:44;14.23;;;10.73;;
5821;SDS011;2937;48.562;8.022;2022-07-23T04:13:36;13.90;;;11.27;;
5821;SDS011;2937;48.562;8.022;2022-07-23T04:18:29;13.07;;;10.70;;
5821;SDS011;2937;48.562;8.022;2022-07-23T04:23:31;18.47;;;13.00;;
5821;SDS011;2937;48.562;8.022;2022-07-23T04:28:24;14.70;;;11.53;;
5821;SDS011;2937;48.562;8.022;2022-07-23T04:33:17;12.70;;;10.33;;
5821;SDS011;2937;48.562;8.022;2022-07-23T04:38:12;12.00;;;10.00;;
5821;SDS011;2937;48.562;8.022;2022-07-23T04:43:07;12.83;;;10.87;;
5821;SDS011;2937;48.562;8.022;2022-07-23T04:48:06;13.13;;;10.97;;
5821;SDS011;2937;48.562;8.022;2022-07-23T04:53:00;13.10;;;9.63;;
5821;SDS011;2937;48.562;8.022;2022-07-23T04:57:53;12.20;;;9.70;;
5821;SDS011;2937;48.562;8.022;2022-07-23T05:02:47;11.70;;;9.93;;
5821;SDS011;2937;48.562;8.022;2022-07-23T05:07:40;10.70;;;9.30;;
5821;SDS011;2937;48.562;8.022;2022-07-23T05:12:33;10.47;;;9.37;;
5821;SDS011;2937;48.562;8.022;2022-07-23T05:17:26;12.10;;;9.60;;
5821;SDS011;2937;48.562;8.022;2022-07-23T05:22:20;11.93;;;9.47;;
5821;SDS011;2937;48.562;8.022;2022-07-23T05:27:13;13.70;;;10.17;;
5821;SDS011;2937;48.562;8.022;2022-07-23T05:32:06;13.03;;;10.10;;
5821;SDS011;2937;48.562;8.022;2022-07-23T05:37:03;10.63;;;9.37;;
5821;SDS011;2937;48.562;8.022;2022-07-23T05:41:57;10.83;;;9.73;;
5821;SDS011;2937;48.562;8.022;2022-07-23T05:46:50;13.43;;;9.70;;
5821;SDS011;2937;48.562;8.022;2022-07-23T05:51:45;11.00;;;9.33;;
5821;SDS011;2937;48.562;8.022;2022-07-23T05:56:41;16.57;;;10.47;;
5821;SDS011;2937;48.562;8.022;2022-07-23T06:01:35;12.20;;;10.50;;
5821;SDS011;2937;48.562;8.022;2022-07-23T06:06:31;13.93;;;10.77;;
5821;SDS011;2937;48.562;8.022;2022-07-23T06:11:24;13.20;;;10.00;;
5821;SDS011;2937;48.562;8.022;2022-07-23T06:16:17;13.10;;;10.63;;
5821;SDS011;2937;48.562;8.022;2022-07-23T06:21:11;14.40;;;11.13;;
5821;SDS011;2937;48.562;8.022;2022-07-23T06:26:23;15.70;;;11.93;;
5821;SDS011;2937;48.562;8.022;2022-07-23T06:31:16;16.53;;;12.63;;
5821;SDS011;2937;48.562;8.022;2022-07-23T06:36:10;15.10;;;12.23;;
5821;SDS011;2937;48.562;8.022;2022-07-23T06:41:04;15.60;;;12.47;;
5821;SDS011;2937;48.562;8.022;2022-07-23T06:45:57;16.17;;;12.87;;
5821;SDS011;2937;48.562;8.022;2022-07-23T06:50:50;23.17;;;12.47;;
5821;SDS011;2937;48.562;8.022;2022-07-23T06:55:49;18.37;;;13.10;;
5821;SDS011;2937;48.562;8.022;2022-07-23T07:00:42;15.70;;;11.43;;
5821;SDS011;2937;48.562;8.022;2022-07-23T07:05:34;17.50;;;11.00;;
5821;SDS011;2937;48.562;8.022;2022-07-23T07:10:27;18.00;;;12.20;;
5821;SDS011;2937;48.562;8.022;2022-07-23T07:15:21;14.73;;;12.37;;
5821;SDS011;2937;48.562;8.022;2022-07-23T07:20:13;15.73;;;12.00;;
5821;SDS011;2937;48.562;8.022;2022-07-23T07:25:06;13.27;;;11.20;;
5821;SDS011;2937;48.562;8.022;2022-07-23T07:29:59;15.60;;;11.83;;
5821;SDS011;2937;48.562;8.022;2022-07-23T07:34:53;13.60;;;11.23;;
5821;SDS011;2937;48.562;8.022;2022-07-23T07:39:46;14.43;;;11.67;;
5821;SDS011;2937;48.562;8.022;2022-07-23T07:44:38;15.60;;;11.70;;
5821;SDS011;2937;48.562;8.022;2022-07-23T07:49:31;13.30;;;11.07;;
5821;SDS011;2937;48.562;8.022;2022-07-23T07:54:27;14.40;;;11.10;;
5821;SDS011;2937;48.562;8.022;2022-07-23T07:59:20;15.20;;;11.00;;
5821;SDS011;2937;48.562;8.022;2022-07-23T08:04:12;13.37;;;10.60;;
5821;SDS011;2937;48.562;8.022;2022-07-23T08:09:05;11.60;;;10.40;;
5821;SDS011;2937;48.562;8.022;2022-07-23T08:13:59;12.10;;;10.27;;
5821;SDS011;2937;48.562;8.022;2022-07-23T08:18:52;11.30;;;10.13;;
5821;SDS011;2937;48.562;8.022;2022-07-23T08:23:45;13.40;;;11.10;;
5821;SDS011;2937;48.562;8.022;2022-07-23T08:28:37;13.03;;;11.37;;
5821;SDS011;2937;48.562;8.022;2022-07-23T08:33:31;14.67;;;12.73;;
5821;SDS011;2937;48.562;8.022;2022-07-23T08:38:25;14.60;;;12.77;;
5821;SDS011;2937;48.562;8.022;2022-07-23T08:43:18;13.00;;;11.50;;
5821;SDS011;2937;48.562;8.022;2022-07-23T08:48:11;13.30;;;11.90;;
5821;SDS011;2937;48.562;8.022;2022-07-23T08:53:06;14.67;;;11.73;;
5821;SDS011;2937;48.562;8.022;2022-07-23T08:57:59;12.60;;;11.30;;
5821;SDS011;2937;48.562;8.022;2022-07-23T09:02:52;12.33;;;11.03;;
5821;SDS011;2937;48.562;8.022;2022-07-23T09:12:57;12.10;;;10.40;;
5821;SDS011;2937;48.562;8.022;2022-07-23T09:17:50;11.07;;;9.80;;
5821;SDS011;2937;48.562;8.022;2022-07-23T09:22:44;11.83;;;10.63;;
5821;SDS011;2937;48.562;8.022;2022-07-23T09:33:05;13.20;;;10.73;;
5821;SDS011;2937;48.562;8.022;2022-07-23T09:38:00;11.30;;;10.20;;
5821;SDS011;2937;48.562;8.022;2022-07-23T09:42:54;9.33;;;8.40;;
5821;SDS011;2937;48.562;8.022;2022-07-23T09:47:47;11.10;;;9.93;;
5821;SDS011;2937;48.562;8.022;2022-07-23T09:52:43;10.80;;;9.50;;
5821;SDS011;2937;48.562;8.022;2022-07-23T09:57:35;11.17;;;9.17;;
5821;SDS011;2937;48.562;8.022;2022-07-23T10:02:30;10.80;;;9.30;;
5821;SDS011;2937;48.562;8.022;2022-07-23T10:07:44;11.53;;;10.10;;
5821;SDS011;2937;48.562;8.022;2022-07-23T10:13:02;12.40;;;10.10;;
5821;SDS011;2937;48.562;8.022;2022-07-23T10:18:17;10.07;;;8.93;;
5821;SDS011;2937;48.562;8.022;2022-07-23T10:23:27;9.97;;;8.90;;
5821;SDS011;2937;48.562;8.022;2022-07-23T10:28:27;10.60;;;9.20;;
5821;SDS011;2937;48.562;8.022;2022-07-23T10:33:27;11.63;;;9.50;;
5821;SDS011;2937;48.562;8.022;2022-07-23T10:38:25;9.83;;;8.90;;
5821;SDS011;2937;48.562;8.022;2022-07-23T10:43:19;9.80;;;8.77;;
5821;SDS011;2937;48.562;8.022;2022-07-23T10:48:13;10.43;;;8.93;;
5821;SDS011;2937;48.562;8.022;2022-07-23T10:53:10;9.40;;;8.50;;
5821;SDS011;2937;48.562;8.022;2022-07-23T10:58:05;10.40;;;9.30;;
5821;SDS011;2937;48.562;8.022;2022-07-23T11:02:59;9.67;;;8.67;;
5821;SDS011;2937;48.562;8.022;2022-07-23T11:18:11;11.10;;;8.60;;
5821;SDS011;2937;48.562;8.022;2022-07-23T11:23:04;9.37;;;8.40;;
5821;SDS011;2937;48.562;8.022;2022-07-23T11:28:07;12.80;;;8.30;;
5821;SDS011;2937;48.562;8.022;2022-07-23T11:33:15;10.23;;;8.30;;
5821;SDS011;2937;48.562;8.022;2022-07-23T11:38:09;10.50;;;8.67;;
5821;SDS011;2937;48.562;8.022;2022-07-23T11:43:05;8.97;;;8.03;;
5821;SDS011;2937;48.562;8.022;2022-07-23T11:47:57;9.80;;;8.70;;
5821;SDS011;2937;48.562;8.022;2022-07-23T11:52:51;10.00;;;9.00;;
5821;SDS011;2937;48.562;8.022;2022-07-23T11:57:44;11.00;;;8.87;;
5821;SDS011;2937;48.562;8.022;2022-07-23T12:02:37;12.23;;;8.90;;
5821;SDS011;2937;48.562;8.022;2022-07-23T12:07:31;9.97;;;8.97;;
5821;SDS011;2937;48.562;8.022;2022-07-23T12:12:25;10.20;;;9.20;;
5821;SDS011;2937;48.562;8.022;2022-07-23T12:17:18;10.60;;;9.60;;
5821;SDS011;2937;48.562;8.022;2022-07-23T12:22:10;9.53;;;8.57;;
5821;SDS011;2937;48.562;8.022;2022-07-23T12:27:09;10.57;;;9.40;;
5821;SDS011;2937;48.562;8.022;2022-07-23T12:32:14;10.07;;;9.17;;
5821;SDS011;2937;48.562;8.022;2022-07-23T12:37:07;11.00;;;9.87;;
5821;SDS011;2937;48.562;8.022;2022-07-23T12:41:59;10.90;;;9.80;;
5821;SDS011;2937;48.562;8.022;2022-07-23T12:46:52;10.77;;;9.70;;
5821;SDS011;2937;48.562;8.022;2022-07-23T12:51:46;10.90;;;9.90;;
5821;SDS011;2937;48.562;8.022;2022-07-23T12:56:39;10.77;;;9.57;;
5821;SDS011;2937;48.562;8.022;2022-07-23T13:01:39;11.13;;;10.00;;
5821;SDS011;2937;48.562;8.022;2022-07-23T13:06:34;11.80;;;10.60;;
5821;SDS011;2937;48.562;8.022;2022-07-23T13:11:32;11.27;;;10.17;;
5821;SDS011;2937;48.562;8.022;2022-07-23T13:16:25;11.67;;;10.57;;
5821;SDS011;2937;48.562;8.022;2022-07-23T13:21:18;11.63;;;10.53;;
5821;SDS011;2937;48.562;8.022;2022-07-23T13:26:11;11.33;;;10.10;;
5821;SDS011;2937;48.562;8.022;2022-07-23T13:31:05;11.97;;;10.77;;
5821;SDS011;2937;48.562;8.022;2022-07-23T13:35:59;11.87;;;10.77;;
5821;SDS011;2937;48.562;8.022;2022-07-23T13:40:52;11.30;;;10.10;;
5821;SDS011;2937;48.562;8.022;2022-07-23T13:45:45;12.20;;;9.60;;
5821;SDS011;2937;48.562;8.022;2022-07-23T13:50:39;11.80;;;10.07;;
5821;SDS011;2937;48.562;8.022;2022-07-23T13:55:33;11.50;;;10.33;;
5821;SDS011;2937;48.562;8.022;2022-07-23T14:00:26;11.40;;;10.20;;
5821;SDS011;2937;48.562;8.022;2022-07-23T14:05:40;11.50;;;10.40;;
5821;SDS011;2937;48.562;8.022;2022-07-23T14:10:35;11.57;;;10.37;;
5821;SDS011;2937;48.562;8.022;2022-07-23T14:15:30;11.23;;;10.13;;
5821;SDS011;2937;48.562;8.022;2022-07-23T14:20:23;12.07;;;10.83;;
5821;SDS011;2937;48.562;8.022;2022-07-23T14:25:17;10.90;;;9.90;;
5821;SDS011;2937;48.562;8.022;2022-07-23T14:30:10;12.17;;;9.87;;
5821;SDS011;2937;48.562;8.022;2022-07-23T14:35:04;11.07;;;9.97;;
5821;SDS011;2937;48.562;8.022;2022-07-23T14:40:01;11.13;;;10.03;;
5821;SDS011;2937;48.562;8.022;2022-07-23T14:44:55;10.70;;;9.60;;
5821;SDS011;2937;48.562;8.022;2022-07-23T14:49:48;11.27;;;9.50;;
5821;SDS011;2937;48.562;8.022;2022-07-23T14:54:41;10.33;;;9.30;;
5821;SDS011;2937;48.562;8.022;2022-07-23T14:59:33;10.10;;;9.20;;
5821;SDS011;2937;48.562;8.022;2022-07-23T15:04:29;10.07;;;9.07;;
5821;SDS011;2937;48.562;8.022;2022-07-23T15:09:28;10.67;;;9.50;;
5821;SDS011;2937;48.562;8.022;2022-07-23T15:14:21;11.53;;;9.40;;
5821;SDS011;2937;48.562;8.022;2022-07-23T15:19:19;11.07;;;9.93;;
5821;SDS011;2937;48.562;8.022;2022-07-23T15:24:13;11.30;;;9.83;;
5821;SDS011;2937;48.562;8.022;2022-07-23T15:29:06;13.43;;;9.70;;
5821;SDS011;2937;48.562;8.022;2022-07-23T15:34:00;13.30;;;10.50;;
5821;SDS011;2937;48.562;8.022;2022-07-23T15:38:53;13.03;;;10.17;;
5821;SDS011;2937;48.562;8.022;2022-07-23T15:43:47;11.23;;;10.03;;
5821;SDS011;2937;48.562;8.022;2022-07-23T15:48:40;11.57;;;10.37;;
5821;SDS011;2937;48.562;8.022;2022-07-23T15:53:32;12.77;;;10.23;;
5821;SDS011;2937;48.562;8.022;2022-07-23T15:58:27;12.33;;;10.80;;
5821;SDS011;2937;48.562;8.022;2022-07-23T16:03:22;11.10;;;9.40;;
5821;SDS011;2937;48.562;8.022;2022-07-23T16:08:14;12.77;;;10.40;;
5821;SDS011;2937;48.562;8.022;2022-07-23T16:13:07;13.00;;;11.00;;
5821;SDS011;2937;48.562;8.022;2022-07-23T16:17:59;12.33;;;10.40;;
5821;SDS011;2937;48.562;8.022;2022-07-23T16:22:53;10.50;;;9.17;;
5821;SDS011;2937;48.562;8.022;2022-07-23T16:27:46;12.97;;;10.87;;
5821;SDS011;2937;48.562;8.022;2022-07-23T16:32:38;11.77;;;10.57;;
5821;SDS011;2937;48.562;8.022;2022-07-23T16:37:31;11.00;;;9.87;;
5821;SDS011;2937;48.562;8.022;2022-07-23T16:42:25;12.47;;;9.40;;
5821;SDS011;2937;48.562;8.022;2022-07-23T16:47:19;10.30;;;8.90;;
5821;SDS011;2937;48.562;8.022;2022-07-23T16:52:12;14.23;;;10.23;;
5821;SDS011;2937;48.562;8.022;2022-07-23T16:57:05;11.83;;;9.70;;
5821;SDS011;2937;48.562;8.022;2022-07-23T17:01:59;10.07;;;8.90;;
5821;SDS011;2937;48.562;8.022;2022-07-23T17:06:51;12.40;;;9.40;;
5821;SDS011;2937;48.562;8.022;2022-07-23T17:11:44;10.53;;;9.40;;
5821;SDS011;2937;48.562;8.022;2022-07-23T17:16:37;11.80;;;9.63;;
5821;SDS011;2937;48.562;8.022;2022-07-23T17:21:31;10.33;;;8.57;;
5821;SDS011;2937;48.562;8.022;2022-07-23T17:26:23;11.07;;;9.33;;
5821;SDS011;2937;48.562;8.022;2022-07-23T17:31:16;10.40;;;9.30;;
5821;SDS011;2937;48.562;8.022;2022-07-23T17:36:09;10.50;;;9.40;;
5821;SDS011;2937;48.562;8.022;2022-07-23T17:41:03;11.10;;;8.93;;
5821;SDS011;2937;48.562;8.022;2022-07-23T17:45:55;13.33;;;8.77;;
5821;SDS011;2937;48.562;8.022;2022-07-23T17:50:48;10.67;;;9.57;;
5821;SDS011;2937;48.562;8.022;2022-07-23T17:55:45;14.30;;;9.07;;
5821;SDS011;2937;48.562;8.022;2022-07-23T18:00:39;10.80;;;9.70;;
5821;SDS011;2937;48.562;8.022;2022-07-23T18:05:32;12.23;;;9.43;;
5821;SDS011;2937;48.562;8.022;2022-07-23T18:10:25;10.27;;;9.07;;
5821;SDS011;2937;48.562;8.022;2022-07-23T18:15:18;15.40;;;9.90;;
5821;SDS011;2937;48.562;8.022;2022-07-23T18:20:12;12.23;;;8.77;;
5821;SDS011;2937;48.562;8.022;2022-07-23T18:25:05;11.77;;;8.90;;
5821;SDS011;2937;48.562;8.022;2022-07-23T18:29:57;11.83;;;9.07;;
5821;SDS011;2937;48.562;8.022;2022-07-23T18:34:50;10.60;;;8.73;;
5821;SDS011;2937;48.562;8.022;2022-07-23T18:39:44;11.70;;;9.60;;
5821;SDS011;2937;48.562;8.022;2022-07-23T18:44:37;11.00;;;9.77;;
5821;SDS011;2937;48.562;8.022;2022-07-23T18:49:29;10.60;;;9.33;;
5821;SDS011;2937;48.562;8.022;2022-07-23T18:54:22;14.60;;;9.80;;
5821;SDS011;2937;48.562;8.022;2022-07-23T18:59:16;10.80;;;9.30;;
5821;SDS011;2937;48.562;8.022;2022-07-23T19:04:13;12.93;;;9.70;;
5821;SDS011;2937;48.562;8.022;2022-07-23T19:09:07;11.70;;;9.40;;
5821;SDS011;2937;48.562;8.022;2022-07-23T19:14:01;13.40;;;9.87;;
5821;SDS011;2937;48.562;8.022;2022-07-23T19:18:55;11.60;;;9.43;;
5821;SDS011;2937;48.562;8.022;2022-07-23T19:23:47;12.13;;;9.83;;
5821;SDS011;2937;48.562;8.022;2022-07-23T19:28:40;14.70;;;10.30;;
5821;SDS011;2937;48.562;8.022;2022-07-23T19:33:33;11.60;;;10.10;;
5821;SDS011;2937;48.562;8.022;2022-07-23T19:38:27;11.13;;;9.87;;
5821;SDS011;2937;48.562;8.022;2022-07-23T19:43:19;11.80;;;9.90;;
5821;SDS011;2937;48.562;8.022;2022-07-23T19:48:12;13.00;;;10.00;;
5821;SDS011;2937;48.562;8.022;2022-07-23T19:53:04;13.70;;;10.47;;
5821;SDS011;2937;48.562;8.022;2022-07-23T19:57:58;12.00;;;10.63;;
5821;SDS011;2937;48.562;8.022;2022-07-23T20:02:51;14.83;;;10.90;;
5821;SDS011;2937;48.562;8.022;2022-07-23T20:07:46;18.40;;;11.53;;
5821;SDS011;2937;48.562;8.022;2022-07-23T20:12:39;13.23;;;11.10;;
5821;SDS011;2937;48.562;8.022;2022-07-23T20:17:33;13.00;;;11.30;;
5821;SDS011;2937;48.562;8.022;2022-07-23T20:22:26;16.33;;;12.07;;
5821;SDS011;2937;48.562;8.022;2022-07-23T20:27:18;13.80;;;11.80;;
5821;SDS011;2937;48.562;8.022;2022-07-23T20:32:11;16.07;;;11.90;;
5821;SDS011;2937;48.562;8.022;2022-07-23T20:37:05;12.80;;;11.40;;
5821;SDS011;2937;48.562;8.022;2022-07-23T20:41:58;13.73;;;11.97;;
5821;SDS011;2937;48.562;8.022;2022-07-23T20:46:50;15.67;;;11.80;;
5821;SDS011;2937;48.562;8.022;2022-07-23T20:51:50;17.83;;;11.97;;
5821;SDS011;2937;48.562;8.022;2022-07-23T20:56:44;15.30;;;11.93;;
5821;SDS011;2937;48.562;8.022;2022-07-23T21:01:36;16.20;;;12.13;;
5821;SDS011;2937;48.562;8.022;2022-07-23T21:06:29;14.50;;;10.73;;
5821;SDS011;2937;48.562;8.022;2022-07-23T21:11:23;15.30;;;12.83;;
5821;SDS011;2937;48.562;8.022;2022-07-23T21:16:17;15.27;;;11.73;;
5821;SDS011;2937;48.562;8.022;2022-07-23T21:21:09;15.17;;;11.70;;
5821;SDS011;2937;48.562;8.022;2022-07-23T21:26:04;15.37;;;12.77;;
5821;SDS011;2937;48.562;8.022;2022-07-23T21:31:18;15.30;;;12.73;;
5821;SDS011;2937;48.562;8.022;2022-07-23T21:36:10;15.07;;;12.17;;
5821;SDS011;2937;48.562;8.022;2022-07-23T21:41:03;16.20;;;11.63;;
5821;SDS011;2937;48.562;8.022;2022-07-23T21:45:56;14.63;;;12.03;;
5821;SDS011;2937;48.562;8.022;2022-07-23T21:50:50;16.27;;;12.20;;
5821;SDS011;2937;48.562;8.022;2022-07-23T21:55:43;14.73;;;12.50;;
5821;SDS011;2937;48.562;8.022;2022-07-23T22:00:35;15.60;;;11.97;;
5821;SDS011;2937;48.562;8.022;2022-07-23T22:05:29;14.37;;;11.40;;
5821;SDS011;2937;48.562;8.022;2022-07-23T22:10:23;14.27;;;11.37;;
5821;SDS011;2937;48.562;8.022;2022-07-23T22:15:17;18.67;;;11.80;;
5821;SDS011;2937;48.562;8.022;2022-07-23T22:20:10;17.30;;;12.13;;
5821;SDS011;2937;48.562;8.022;2022-07-23T22:25:03;17.07;;;12.50;;
5821;SDS011;2937;48.562;8.022;2022-07-23T22:29:57;16.93;;;13.17;;
5821;SDS011;2937;48.562;8.022;2022-07-23T22:34:50;15.43;;;13.17;;
5821;SDS011;2937;48.562;8.022;2022-07-23T22:39:42;16.13;;;12.70;;
5821;SDS011;2937;48.562;8.022;2022-07-23T22:44:35;16.07;;;13.00;;
5821;SDS011;2937;48.562;8.022;2022-07-23T22:49:29;15.87;;;11.70;;
5821;SDS011;2937;48.562;8.022;2022-07-23T22:54:22;14.47;;;11.30;;
5821;SDS011;2937;48.562;8.022;2022-07-23T22:59:14;13.53;;;12.10;;
5821;SDS011;2937;48.562;8.022;2022-07-23T23:04:20;13.23;;;11.83;;
5821;SDS011;2937;48.562;8.022;2022-07-23T23:09:14;16.30;;;12.23;;
5821;SDS011;2937;48.562;8.022;2022-07-23T23:14:07;13.87;;;11.90;;
5821;SDS011;2937;48.562;8.022;2022-07-23T23:18:59;18.00;;;12.27;;
5821;SDS011;2937;48.562;8.022;2022-07-23T23:23:52;14.30;;;11.90;;
5821;SDS011;2937;48.562;8.022;2022-07-23T23:28:46;16.13;;;12.87;;
5821;SDS011;2937;48.562;8.022;2022-07-23T23:33:39;17.17;;;12.77;;
5821;SDS011;2937;48.562;8.022;2022-07-23T23:38:31;15.53;;;12.17;;
5821;SDS011;2937;48.562;8.022;2022-07-23T23:43:24;14.93;;;12.40;;
5821;SDS011;2937;48.562;8.022;2022-07-23T23:48:18;18.07;;;12.97;;
5821;SDS011;2937;48.562;8.022;2022-07-23T23:53:12;18.07;;;13.67;;
5821;SDS011;2937;48.562;8.022;2022-07-23T23:58:04;17.00;;;12.83;;
